Emden — 3ERP5 — position and weather

sailwx.info

Track history (hours):
 
Tides and Currents Weather Stations Pressure Air Temp Water Temp Dewpoint Dewpoint Depression Visibility Wind Speed Wind Dir Waves Ship Positions

Emden

Last reported at 2014-Aug-27 08:32 UTC. Time now 2014-Aug-27 09:11 UTC.
Position N 38°31' W 008°52'.

Length 177 m; draft 7.4 m.

Type: Ship. MMSI: 355051000.

Date/timePositionNaut miles runAvg speedWind from/ knotsBaromVisibWave heightAir tempDewpointWater temp
2014-Aug-27 08:32N 38°31' W 008°52'0 0.0
2014-Aug-27 07:29N 38°31' W 008°52'0 0.0
2014-Aug-27 06:20N 38°31' W 008°52'0 0.0
2014-Aug-27 05:29N 38°31' W 008°52'0 0.0
2014-Aug-27 04:29N 38°31' W 008°52'0 0.0
2014-Aug-27 03:32N 38°31' W 008°52'0 0.0
2014-Aug-27 02:29N 38°31' W 008°52'0 0.0
2014-Aug-27 01:29N 38°31' W 008°52'0 0.0
2014-Aug-27 00:29N 38°31' W 008°52'0 0.0
2014-Aug-26 23:32N 38°31' W 008°52'0 0.0
2014-Aug-26 22:29N 38°31' W 008°52'0 0.0
2014-Aug-26 21:29N 38°31' W 008°52'0 0.0
2014-Aug-26 20:17N 38°31' W 008°52'0 0.1
2014-Aug-26 19:26N 38°31' W 008°52'5 4.9
2014-Aug-26 18:27N 38°28' W 008°57'6 6.7
2014-Aug-26 17:33N 38°23' W 009°02'10 9.7
2014-Aug-26 16:32N 38°20' W 009°14'1414.3
2014-Aug-26 15:32N 38°24' W 009°31'  
2014-Aug-23 23:33N 50°20' W 001°12'1615.5
2014-Aug-23 22:33N 50°24' W 000°48'1413.8
2014-Aug-23 21:32N 50°28' W 000°27'1313.1
2014-Aug-23 20:33N 50°31' W 000°07'1211.9
2014-Aug-23 19:33N 50°34' E 000°11'56 3.5
2014-Aug-23 03:31N 51°26' E 000°44'0 0.0
2014-Aug-23 02:31N 51°26' E 000°44'0 0.0
2014-Aug-23 01:31N 51°26' E 000°44'0 0.0
2014-Aug-23 00:31N 51°26' E 000°44'0 0.0
2014-Aug-22 23:31N 51°26' E 000°44'0 0.0
2014-Aug-22 22:31N 51°26' E 000°44'0 0.0
2014-Aug-22 21:34N 51°26' E 000°44'0 0.1
2014-Aug-22 20:33N 51°26' E 000°44'1111.0
2014-Aug-22 19:33N 51°30' E 001°01'1514.7
2014-Aug-22 18:33N 51°28' E 001°25'7 6.8
2014-Aug-22 17:34N 51°29' E 001°35'1413.6
2014-Aug-22 16:34N 51°34' E 001°56'1414.2
2014-Aug-22 15:33N 51°42' E 002°14'6412.8
2014-Aug-22 10:32N 52°30' E 003°23'1313.5
2014-Aug-22 09:33N 52°41' E 003°36'4113.7
2014-Aug-22 06:33N 53°11' E 004°23'1313.1
2014-Aug-22 05:33N 53°22' E 004°33'1211.7
2014-Aug-22 04:34N 53°30' E 004°47'1211.9
2014-Aug-22 03:34N 53°34' E 005°06'1211.8
2014-Aug-22 02:34N 53°38' E 005°25'1212.3
2014-Aug-22 01:34N 53°42' E 005°45'1312.9
2014-Aug-22 00:33N 53°44' E 006°06'1212.0
2014-Aug-21 23:33N 53°38' E 006°24'1515.0
2014-Aug-21 22:33N 53°31' E 006°46'1514.9
2014-Aug-21 21:34N 53°19' E 007°02'5 4.6
2014-Aug-21 20:33N 53°20' E 007°10'0 0.0
2014-Aug-21 19:33N 53°20' E 007°10'0 0.0
2014-Aug-21 18:30N 53°20' E 007°10'0 0.0
2014-Aug-21 17:33N 53°20' E 007°10'0 0.0
2014-Aug-21 16:33N 53°20' E 007°10'0 0.0
2014-Aug-21 15:30N 53°20' E 007°10'0 0.0
2014-Aug-21 14:33N 53°20' E 007°10'0 0.0
2014-Aug-21 13:33N 53°20' E 007°10'0 0.0
2014-Aug-21 12:33N 53°20' E 007°10'0 0.0
2014-Aug-21 11:33N 53°20' E 007°10'0 0.0
2014-Aug-21 10:27N 53°20' E 007°10'0 0.0
2014-Aug-21 09:27N 53°20' E 007°10'0 0.0
2014-Aug-21 08:33N 53°20' E 007°10'0 0.0
2014-Aug-21 07:33N 53°20' E 007°10'0 0.0
2014-Aug-21 06:33N 53°20' E 007°10'0 0.0
2014-Aug-21 05:33N 53°20' E 007°10'0 0.0
2014-Aug-21 04:33N 53°20' E 007°10'0 0.0
2014-Aug-21 03:30N 53°20' E 007°10'2 1.7
2014-Aug-21 02:33N 53°20' E 007°07'10 9.7
2014-Aug-21 01:33N 53°26' E 006°55'1313.0
2014-Aug-21 00:34N 53°35' E 006°38'1111.1
2014-Aug-20 23:33N 53°38' E 006°20'5 5.0
2014-Aug-20 22:33N 53°40' E 006°12'3 3.4
2014-Aug-20 21:33N 53°41' E 006°07'7 7.1
2014-Aug-20 20:33N 53°39' E 005°55'8 7.6
2014-Aug-20 19:33N 53°37' E 005°43'9 8.5
2014-Aug-20 18:33N 53°34' E 005°29'1111.0
2014-Aug-20 17:33N 53°30' E 005°12'1414.1
2014-Aug-20 16:33N 53°25' E 004°50'1313.1
2014-Aug-20 15:33N 53°15' E 004°36'1514.3
2014-Aug-20 14:31N 53°02' E 004°23'1414.2
2014-Aug-20 13:33N 52°50' E 004°15'1414.3
2014-Aug-20 12:33N 52°39' E 003°59'1514.4
2014-Aug-20 11:32N 52°28' E 003°43'1614.8
2014-Aug-20 10:27N 52°18' E 003°23'4514.7
2014-Aug-20 07:23N 51°44' E 002°34'1314.2
2014-Aug-20 06:29N 51°34' E 002°21'1313.8
2014-Aug-20 05:32N 51°23' E 002°10'1312.5
2014-Aug-20 04:29N 51°12' E 001°59'1212.5
2014-Aug-20 03:33N 51°06' E 001°44'1212.3
2014-Aug-20 02:34N 50°56' E 001°31'1712.1
2014-Aug-20 01:10N 50°41' E 001°20'913.0
2014-Aug-20 00:27N 50°35' E 001°09'1213.0
2014-Aug-19 23:34N 50°28' E 000°54'1513.7
2014-Aug-19 22:26N 50°24' E 000°30'1213.6
2014-Aug-19 21:33N 50°21' E 000°12'  
Track history (hours):
 
Tides and Currents Weather Stations Pressure Air Temp Water Temp Dewpoint Dewpoint Depression Visibility Wind Speed Wind Dir Waves Ship Positions

Emden

Last reported at 2014-Aug-27 08:32 UTC. Time now 2014-Aug-27 09:11 UTC.
Position N 38°31' W 008°52'.

Length 177 m; draft 7.4 m.

Type: Ship. MMSI: 355051000.

Date/timePositionNaut miles runAvg speedWind from/ knotsBaromVisibWave heightAir tempDewpointWater temp
2014-Aug-27 08:32N 38°31' W 008°52'0 0.0
2014-Aug-27 07:29N 38°31' W 008°52'0 0.0
2014-Aug-27 06:20N 38°31' W 008°52'0 0.0
2014-Aug-27 05:29N 38°31' W 008°52'0 0.0
2014-Aug-27 04:29N 38°31' W 008°52'0 0.0
2014-Aug-27 03:32N 38°31' W 008°52'0 0.0
2014-Aug-27 02:29N 38°31' W 008°52'0 0.0
2014-Aug-27 01:29N 38°31' W 008°52'0 0.0
2014-Aug-27 00:29N 38°31' W 008°52'0 0.0
2014-Aug-26 23:32N 38°31' W 008°52'0 0.0
2014-Aug-26 22:29N 38°31' W 008°52'0 0.0
2014-Aug-26 21:29N 38°31' W 008°52'0 0.0
2014-Aug-26 20:17N 38°31' W 008°52'0 0.1
2014-Aug-26 19:26N 38°31' W 008°52'5 4.9
2014-Aug-26 18:27N 38°28' W 008°57'6 6.7
2014-Aug-26 17:33N 38°23' W 009°02'10 9.7
2014-Aug-26 16:32N 38°20' W 009°14'1414.3
2014-Aug-26 15:32N 38°24' W 009°31'  
2014-Aug-23 23:33N 50°20' W 001°12'1615.5
2014-Aug-23 22:33N 50°24' W 000°48'1413.8
2014-Aug-23 21:32N 50°28' W 000°27'1313.1
2014-Aug-23 20:33N 50°31' W 000°07'1211.9
2014-Aug-23 19:33N 50°34' E 000°11'56 3.5
2014-Aug-23 03:31N 51°26' E 000°44'0 0.0
2014-Aug-23 02:31N 51°26' E 000°44'0 0.0
2014-Aug-23 01:31N 51°26' E 000°44'0 0.0
2014-Aug-23 00:31N 51°26' E 000°44'0 0.0
2014-Aug-22 23:31N 51°26' E 000°44'0 0.0
2014-Aug-22 22:31N 51°26' E 000°44'0 0.0
2014-Aug-22 21:34N 51°26' E 000°44'0 0.1
2014-Aug-22 20:33N 51°26' E 000°44'1111.0
2014-Aug-22 19:33N 51°30' E 001°01'1514.7
2014-Aug-22 18:33N 51°28' E 001°25'7 6.8
2014-Aug-22 17:34N 51°29' E 001°35'1413.6
2014-Aug-22 16:34N 51°34' E 001°56'1414.2
2014-Aug-22 15:33N 51°42' E 002°14'6412.8
2014-Aug-22 10:32N 52°30' E 003°23'1313.5
2014-Aug-22 09:33N 52°41' E 003°36'4113.7
2014-Aug-22 06:33N 53°11' E 004°23'1313.1
2014-Aug-22 05:33N 53°22' E 004°33'1211.7
2014-Aug-22 04:34N 53°30' E 004°47'1211.9
2014-Aug-22 03:34N 53°34' E 005°06'1211.8
2014-Aug-22 02:34N 53°38' E 005°25'1212.3
2014-Aug-22 01:34N 53°42' E 005°45'1312.9
2014-Aug-22 00:33N 53°44' E 006°06'1212.0
2014-Aug-21 23:33N 53°38' E 006°24'1515.0
2014-Aug-21 22:33N 53°31' E 006°46'1514.9
2014-Aug-21 21:34N 53°19' E 007°02'5 4.6
2014-Aug-21 20:33N 53°20' E 007°10'0 0.0
2014-Aug-21 19:33N 53°20' E 007°10'0 0.0
2014-Aug-21 18:30N 53°20' E 007°10'0 0.0
2014-Aug-21 17:33N 53°20' E 007°10'0 0.0
2014-Aug-21 16:33N 53°20' E 007°10'0 0.0
2014-Aug-21 15:30N 53°20' E 007°10'0 0.0
2014-Aug-21 14:33N 53°20' E 007°10'0 0.0
2014-Aug-21 13:33N 53°20' E 007°10'0 0.0
2014-Aug-21 12:33N 53°20' E 007°10'0 0.0
2014-Aug-21 11:33N 53°20' E 007°10'0 0.0
2014-Aug-21 10:27N 53°20' E 007°10'0 0.0
2014-Aug-21 09:27N 53°20' E 007°10'0 0.0
2014-Aug-21 08:33N 53°20' E 007°10'0 0.0
2014-Aug-21 07:33N 53°20' E 007°10'0 0.0
2014-Aug-21 06:33N 53°20' E 007°10'0 0.0
2014-Aug-21 05:33N 53°20' E 007°10'0 0.0
2014-Aug-21 04:33N 53°20' E 007°10'0 0.0
2014-Aug-21 03:30N 53°20' E 007°10'2 1.7
2014-Aug-21 02:33N 53°20' E 007°07'10 9.7
2014-Aug-21 01:33N 53°26' E 006°55'1313.0
2014-Aug-21 00:34N 53°35' E 006°38'1111.1
2014-Aug-20 23:33N 53°38' E 006°20'5 5.0
2014-Aug-20 22:33N 53°40' E 006°12'3 3.4
2014-Aug-20 21:33N 53°41' E 006°07'7 7.1
2014-Aug-20 20:33N 53°39' E 005°55'8 7.6
2014-Aug-20 19:33N 53°37' E 005°43'9 8.5
2014-Aug-20 18:33N 53°34' E 005°29'1111.0
2014-Aug-20 17:33N 53°30' E 005°12'1414.1
2014-Aug-20 16:33N 53°25' E 004°50'1313.1
2014-Aug-20 15:33N 53°15' E 004°36'1514.3
2014-Aug-20 14:31N 53°02' E 004°23'1414.2
2014-Aug-20 13:33N 52°50' E 004°15'1414.3
2014-Aug-20 12:33N 52°39' E 003°59'1514.4
2014-Aug-20 11:32N 52°28' E 003°43'1614.8
2014-Aug-20 10:27N 52°18' E 003°23'4514.7
2014-Aug-20 07:23N 51°44' E 002°34'1314.2
2014-Aug-20 06:29N 51°34' E 002°21'1313.8
2014-Aug-20 05:32N 51°23' E 002°10'1312.5
2014-Aug-20 04:29N 51°12' E 001°59'1212.5
2014-Aug-20 03:33N 51°06' E 001°44'1212.3
2014-Aug-20 02:34N 50°56' E 001°31'1712.1
2014-Aug-20 01:10N 50°41' E 001°20'913.0
2014-Aug-20 00:27N 50°35' E 001°09'1213.0
2014-Aug-19 23:34N 50°28' E 000°54'1513.7
2014-Aug-19 22:26N 50°24' E 000°30'1213.6
2014-Aug-19 21:33N 50°21' E 000°12'  

Dump ship's entire track history